Accueil
METAR-TAF:

METAR-TAF

Aéroports :

Aéroport de Caen - Carpiquet

Caen, France

latitude: 49-11N, longitude: 000-27W, altitude: 78 m

Observation

Le bulletin a été fait il y a 45 minutes, à 21:30 UTC
Vent 8 kt de ouest/nord-ouest
Température 11°C
Humidité 94%
Pression 1031 hPa
Visibilité 10 km ou plus
pas de nuages en-dessous de 1500 mètres et pas de cumulonimbus.

METAR: LFRK 232130Z AUTO 29008KT CAVOK 11/10 Q1031

Heure: 00:15 (22:15 UTC)

Prévision

Le bulletin a été fait il y a 8 heures et 15 minutes, à 14:00 UTC
Prévision valable du 23 à 15 UTC au 23 à 24 UTC
Vent 12 kt de ouest/nord-ouest
Visibilité 10 km ou plus
pas de nuages en-dessous de 1500 mètres et pas de cumulonimbus.
Evoluant progressivement
du 23 à 21 UTC au 23 à 23 UTC
Visibilité: 3000 m
brume
Temporairement
du 23 à 23 UTC au 23 à 24 UTC
Visibilité: 0500 m
brouillard

TAF: LFRK 231400Z 2315/2324 29012KT CAVOK BECMG 2321/2323 3000 BR TEMPO 2323/2324 0500 FG

Observations et prévisions météorologiques de plus de 4000 aéroports (messages METAR et TAF).

Les stations disponibles sont représentées par des disques jaunes et rouges sur la carte.

Passer la souris dessus pour voir le nom de la station.

Cliquer dessus pour voir les observations et prévisions météorologiques.

Pour changer de carte: cliquez sur les boutons verts avec une croix noire pour zoomer, sur le bouton vert avec un tiret pour effectuer un zoom arrière, ou sur les flèches vertes pour les cartes adjacentes.


METAR-TAF: